sensor_id;sensor_type;location;lat;lon;timestamp;pressure;altitude;pressure_sealevel;temperature;humidity
28267;BME280;15525;45.568;5.448;2022-11-15T00:00:32;97917.66;;;15.91;64.07
28267;BME280;15525;45.568;5.448;2022-11-15T00:02:58;97919.19;;;15.83;63.94
28267;BME280;15525;45.568;5.448;2022-11-15T00:05:24;97921.88;;;15.83;64.00
28267;BME280;15525;45.568;5.448;2022-11-15T00:07:50;97913.00;;;15.83;64.13
28267;BME280;15525;45.568;5.448;2022-11-15T00:10:15;97864.00;;;15.54;63.90
28267;BME280;15525;45.568;5.448;2022-11-15T00:12:41;97904.22;;;15.77;64.51
28267;BME280;15525;45.568;5.448;2022-11-15T00:15:07;97904.69;;;15.79;64.34
28267;BME280;15525;45.568;5.448;2022-11-15T00:17:32;97899.59;;;15.78;63.98
28267;BME280;15525;45.568;5.448;2022-11-15T00:19:58;97891.41;;;15.83;64.06
28267;BME280;15525;45.568;5.448;2022-11-15T00:22:23;97883.91;;;15.80;63.82
28267;BME280;15525;45.568;5.448;2022-11-15T00:24:48;97872.94;;;15.76;63.70
28267;BME280;15525;45.568;5.448;2022-11-15T00:27:14;97902.97;;;15.83;64.27
28267;BME280;15525;45.568;5.448;2022-11-15T00:29:39;97909.38;;;15.87;63.79
28267;BME280;15525;45.568;5.448;2022-11-15T00:32:09;97890.13;;;15.80;64.13
28267;BME280;15525;45.568;5.448;2022-11-15T00:34:35;97888.19;;;15.81;64.48
28267;BME280;15525;45.568;5.448;2022-11-15T00:37:00;97888.72;;;15.83;63.74
28267;BME280;15525;45.568;5.448;2022-11-15T00:39:26;97872.19;;;15.62;63.87
28267;BME280;15525;45.568;5.448;2022-11-15T00:41:51;97888.19;;;15.81;64.36
28267;BME280;15525;45.568;5.448;2022-11-15T00:44:16;97883.31;;;15.83;63.99
28267;BME280;15525;45.568;5.448;2022-11-15T00:46:42;97875.13;;;15.74;63.96
28267;BME280;15525;45.568;5.448;2022-11-15T00:49:07;97882.19;;;15.62;64.37
28267;BME280;15525;45.568;5.448;2022-11-15T00:51:32;97889.06;;;15.19;66.42
28267;BME280;15525;45.568;5.448;2022-11-15T00:53:58;97885.66;;;15.40;65.62
28267;BME280;15525;45.568;5.448;2022-11-15T00:56:23;97867.63;;;15.49;65.39
28267;BME280;15525;45.568;5.448;2022-11-15T00:58:49;97885.06;;;15.65;65.44
28267;BME280;15525;45.568;5.448;2022-11-15T01:01:14;97876.84;;;15.70;64.29
28267;BME280;15525;45.568;5.448;2022-11-15T01:03:40;97885.81;;;15.79;64.82
28267;BME280;15525;45.568;5.448;2022-11-15T01:06:09;97868.94;;;15.38;65.57
28267;BME280;15525;45.568;5.448;2022-11-15T01:08:34;97869.09;;;15.55;65.21
28267;BME280;15525;45.568;5.448;2022-11-15T01:11:05;97862.34;;;15.66;64.58
28267;BME280;15525;45.568;5.448;2022-11-15T01:13:32;97875.81;;;15.80;64.28
28267;BME280;15525;45.568;5.448;2022-11-15T01:15:59;97864.22;;;15.79;64.21
28267;BME280;15525;45.568;5.448;2022-11-15T01:18:30;97849.56;;;15.72;64.50
28267;BME280;15525;45.568;5.448;2022-11-15T01:20:55;97857.81;;;15.75;64.12
28267;BME280;15525;45.568;5.448;2022-11-15T01:23:21;97849.06;;;15.70;63.79
28267;BME280;15525;45.568;5.448;2022-11-15T01:25:46;97847.38;;;15.74;64.01
28267;BME280;15525;45.568;5.448;2022-11-15T01:28:11;97852.19;;;15.63;64.34
28267;BME280;15525;45.568;5.448;2022-11-15T01:30:37;97850.66;;;15.71;64.22
28267;BME280;15525;45.568;5.448;2022-11-15T01:33:02;97852.06;;;15.68;64.17
28267;BME280;15525;45.568;5.448;2022-11-15T01:35:27;97852.38;;;15.67;64.14
28267;BME280;15525;45.568;5.448;2022-11-15T01:37:53;97859.69;;;15.04;66.08
28267;BME280;15525;45.568;5.448;2022-11-15T01:40:18;97865.59;;;14.92;66.81
28267;BME280;15525;45.568;5.448;2022-11-15T01:42:44;97858.88;;;15.30;66.00
28267;BME280;15525;45.568;5.448;2022-11-15T01:45:14;97857.97;;;15.48;65.46
28267;BME280;15525;45.568;5.448;2022-11-15T01:47:43;97850.34;;;15.50;65.71
28267;BME280;15525;45.568;5.448;2022-11-15T01:50:14;97847.78;;;15.67;65.11
28267;BME280;15525;45.568;5.448;2022-11-15T01:52:40;97838.59;;;15.68;64.46
28267;BME280;15525;45.568;5.448;2022-11-15T01:55:26;97852.81;;;15.82;64.85
28267;BME280;15525;45.568;5.448;2022-11-15T01:57:59;97838.84;;;15.80;64.33
28267;BME280;15525;45.568;5.448;2022-11-15T02:00:26;97830.47;;;15.68;64.39
28267;BME280;15525;45.568;5.448;2022-11-15T02:02:51;97802.03;;;15.27;65.72
28267;BME280;15525;45.568;5.448;2022-11-15T02:05:17;97846.28;;;15.61;65.31
28267;BME280;15525;45.568;5.448;2022-11-15T02:07:43;97841.94;;;15.52;65.62
28267;BME280;15525;45.568;5.448;2022-11-15T02:10:13;97832.50;;;15.63;65.10
28267;BME280;15525;45.568;5.448;2022-11-15T02:12:39;97824.97;;;15.73;65.16
28267;BME280;15525;45.568;5.448;2022-11-15T02:15:06;97814.78;;;15.70;65.63
28267;BME280;15525;45.568;5.448;2022-11-15T02:31:38;97826.56;;;15.74;64.66
28267;BME280;15525;45.568;5.448;2022-11-15T02:34:12;97807.06;;;15.77;64.66
28267;BME280;15525;45.568;5.448;2022-11-15T02:36:54;97802.25;;;15.74;64.81
28267;BME280;15525;45.568;5.448;2022-11-15T02:39:41;97793.69;;;15.50;65.52
28267;BME280;15525;45.568;5.448;2022-11-15T02:42:17;97781.34;;;15.36;65.37
28267;BME280;15525;45.568;5.448;2022-11-15T02:45:05;97772.25;;;15.32;65.67
28267;BME280;15525;45.568;5.448;2022-11-15T02:47:35;97756.47;;;15.39;66.44
28267;BME280;15525;45.568;5.448;2022-11-15T02:50:07;97735.59;;;15.31;65.80
28267;BME280;15525;45.568;5.448;2022-11-15T02:52:34;97724.88;;;14.95;67.43
28267;BME280;15525;45.568;5.448;2022-11-15T02:55:00;97680.19;;;14.81;67.87
28267;BME280;15525;45.568;5.448;2022-11-15T03:00:15;97719.72;;;15.29;67.00
28267;BME280;15525;45.568;5.448;2022-11-15T03:02:45;97714.31;;;15.43;66.64
28267;BME280;15525;45.568;5.448;2022-11-15T03:08:29;97692.34;;;15.36;66.85
28267;BME280;15525;45.568;5.448;2022-11-15T03:13:26;97696.56;;;15.50;65.95
28267;BME280;15525;45.568;5.448;2022-11-15T03:16:02;97693.88;;;15.50;65.84
28267;BME280;15525;45.568;5.448;2022-11-15T03:18:32;97701.00;;;15.46;65.65
28267;BME280;15525;45.568;5.448;2022-11-15T03:21:00;97703.88;;;15.50;66.34
28267;BME280;15525;45.568;5.448;2022-11-15T03:23:30;97706.50;;;15.41;66.60
28267;BME280;15525;45.568;5.448;2022-11-15T03:25:57;97695.56;;;15.38;66.12
28267;BME280;15525;45.568;5.448;2022-11-15T03:28:25;97687.00;;;15.22;66.76
28267;BME280;15525;45.568;5.448;2022-11-15T03:30:55;97664.81;;;15.25;66.59
28267;BME280;15525;45.568;5.448;2022-11-15T03:33:21;97685.44;;;15.21;67.28
28267;BME280;15525;45.568;5.448;2022-11-15T03:35:47;97662.44;;;15.02;67.37
28267;BME280;15525;45.568;5.448;2022-11-15T03:38:23;97686.03;;;15.18;67.26
28267;BME280;15525;45.568;5.448;2022-11-15T03:40:59;97682.59;;;15.26;67.17
28267;BME280;15525;45.568;5.448;2022-11-15T03:46:27;97676.47;;;15.12;67.03
28267;BME280;15525;45.568;5.448;2022-11-15T03:49:04;97680.16;;;15.38;66.91
28267;BME280;15525;45.568;5.448;2022-11-15T03:51:30;97678.66;;;15.10;67.78
28267;BME280;15525;45.568;5.448;2022-11-15T03:53:56;97670.28;;;15.12;67.58
28267;BME280;15525;45.568;5.448;2022-11-15T03:56:21;97667.84;;;15.24;67.30
28267;BME280;15525;45.568;5.448;2022-11-15T03:58:47;97669.28;;;15.30;66.23
28267;BME280;15525;45.568;5.448;2022-11-15T04:01:12;97668.13;;;15.22;66.47
28267;BME280;15525;45.568;5.448;2022-11-15T04:03:37;97669.59;;;15.28;66.70
28267;BME280;15525;45.568;5.448;2022-11-15T04:06:03;97679.72;;;15.45;66.43
28267;BME280;15525;45.568;5.448;2022-11-15T04:08:28;97676.97;;;15.36;66.49
28267;BME280;15525;45.568;5.448;2022-11-15T04:10:54;97659.56;;;15.42;65.92
28267;BME280;15525;45.568;5.448;2022-11-15T04:13:19;97659.63;;;15.51;65.78
28267;BME280;15525;45.568;5.448;2022-11-15T04:15:44;97667.66;;;15.42;66.18
28267;BME280;15525;45.568;5.448;2022-11-15T04:18:10;97659.38;;;15.39;65.91
28267;BME280;15525;45.568;5.448;2022-11-15T04:20:35;97640.03;;;15.15;67.25
28267;BME280;15525;45.568;5.448;2022-11-15T04:23:21;97652.88;;;15.40;66.16
28267;BME280;15525;45.568;5.448;2022-11-15T04:26:16;97644.13;;;15.12;66.95
28267;BME280;15525;45.568;5.448;2022-11-15T04:28:42;97650.38;;;15.21;66.58
28267;BME280;15525;45.568;5.448;2022-11-15T04:31:26;97655.38;;;14.92;67.78
28267;BME280;15525;45.568;5.448;2022-11-15T04:33:52;97634.38;;;14.81;67.88
28267;BME280;15525;45.568;5.448;2022-11-15T04:36:18;97633.06;;;14.92;68.04
28267;BME280;15525;45.568;5.448;2022-11-15T04:39:02;97616.97;;;15.09;67.42
28267;BME280;15525;45.568;5.448;2022-11-15T04:41:27;97590.44;;;15.02;67.20
28267;BME280;15525;45.568;5.448;2022-11-15T04:43:54;97612.25;;;15.14;67.59
28267;BME280;15525;45.568;5.448;2022-11-15T04:46:19;97615.56;;;15.11;67.19
28267;BME280;15525;45.568;5.448;2022-11-15T04:48:45;97600.03;;;15.08;67.05
28267;BME280;15525;45.568;5.448;2022-11-15T04:51:10;97601.75;;;15.04;67.21
28267;BME280;15525;45.568;5.448;2022-11-15T04:53:36;97614.91;;;15.06;67.55
28267;BME280;15525;45.568;5.448;2022-11-15T04:56:01;97598.94;;;14.87;67.91
28267;BME280;15525;45.568;5.448;2022-11-15T04:58:26;97605.91;;;14.88;68.24
28267;BME280;15525;45.568;5.448;2022-11-15T05:00:52;97606.09;;;14.92;67.95
28267;BME280;15525;45.568;5.448;2022-11-15T05:03:17;97600.72;;;14.92;67.71
28267;BME280;15525;45.568;5.448;2022-11-15T05:06:01;97593.28;;;14.97;67.23
28267;BME280;15525;45.568;5.448;2022-11-15T05:08:27;97604.34;;;15.18;67.33
28267;BME280;15525;45.568;5.448;2022-11-15T05:10:52;97571.50;;;14.85;67.45
28267;BME280;15525;45.568;5.448;2022-11-15T05:13:17;97614.50;;;14.90;67.78
28267;BME280;15525;45.568;5.448;2022-11-15T05:15:43;97602.34;;;14.79;67.96
28267;BME280;15525;45.568;5.448;2022-11-15T05:18:08;97605.69;;;14.98;68.37
28267;BME280;15525;45.568;5.448;2022-11-15T05:20:34;97588.44;;;15.08;67.95
28267;BME280;15525;45.568;5.448;2022-11-15T05:22:59;97585.44;;;15.09;67.54
28267;BME280;15525;45.568;5.448;2022-11-15T05:25:25;97598.91;;;14.65;68.82
28267;BME280;15525;45.568;5.448;2022-11-15T05:27:51;97592.75;;;14.87;68.13
28267;BME280;15525;45.568;5.448;2022-11-15T05:30:16;97600.28;;;14.98;68.18
28267;BME280;15525;45.568;5.448;2022-11-15T05:32:42;97600.66;;;15.14;67.88
28267;BME280;15525;45.568;5.448;2022-11-15T05:35:12;97566.25;;;14.80;67.94
28267;BME280;15525;45.568;5.448;2022-11-15T05:37:40;97582.25;;;15.07;67.35
28267;BME280;15525;45.568;5.448;2022-11-15T05:40:06;97575.94;;;15.12;67.19
28267;BME280;15525;45.568;5.448;2022-11-15T05:42:32;97591.06;;;15.21;67.33
28267;BME280;15525;45.568;5.448;2022-11-15T05:44:58;97570.22;;;15.13;67.11
28267;BME280;15525;45.568;5.448;2022-11-15T05:47:26;97563.88;;;15.09;68.03
28267;BME280;15525;45.568;5.448;2022-11-15T05:49:55;97566.72;;;15.13;67.47
28267;BME280;15525;45.568;5.448;2022-11-15T05:52:23;97557.66;;;15.09;67.49
28267;BME280;15525;45.568;5.448;2022-11-15T05:54:50;97553.81;;;15.01;67.55
28267;BME280;15525;45.568;5.448;2022-11-15T05:57:17;97555.66;;;15.14;67.44
28267;BME280;15525;45.568;5.448;2022-11-15T05:59:42;97561.19;;;15.18;66.79
28267;BME280;15525;45.568;5.448;2022-11-15T06:02:09;97561.03;;;15.14;67.09
28267;BME280;15525;45.568;5.448;2022-11-15T06:04:34;97561.63;;;14.81;68.07
28267;BME280;15525;45.568;5.448;2022-11-15T06:07:00;97556.19;;;14.94;67.39
28267;BME280;15525;45.568;5.448;2022-11-15T06:09:25;97571.00;;;14.83;68.25
28267;BME280;15525;45.568;5.448;2022-11-15T06:11:50;97563.97;;;14.96;67.98
28267;BME280;15525;45.568;5.448;2022-11-15T06:14:16;97574.19;;;15.07;67.52
28267;BME280;15525;45.568;5.448;2022-11-15T06:16:41;97568.72;;;14.99;67.81
28267;BME280;15525;45.568;5.448;2022-11-15T06:19:07;97566.47;;;14.92;68.10
28267;BME280;15525;45.568;5.448;2022-11-15T06:21:32;97550.78;;;14.94;67.51
28267;BME280;15525;45.568;5.448;2022-11-15T06:23:58;97548.25;;;14.98;67.71
28267;BME280;15525;45.568;5.448;2022-11-15T06:26:23;97551.78;;;14.98;67.53
28267;BME280;15525;45.568;5.448;2022-11-15T06:28:49;97559.84;;;14.98;68.00
28267;BME280;15525;45.568;5.448;2022-11-15T06:31:14;97547.59;;;14.92;67.96
28267;BME280;15525;45.568;5.448;2022-11-15T06:33:40;97560.88;;;15.11;67.32
28267;BME280;15525;45.568;5.448;2022-11-15T06:36:08;97583.25;;;14.89;67.42
28267;BME280;15525;45.568;5.448;2022-11-15T06:38:34;97582.28;;;14.85;67.72
28267;BME280;15525;45.568;5.448;2022-11-15T06:41:05;97565.25;;;14.76;68.07
28267;BME280;15525;45.568;5.448;2022-11-15T06:43:31;97571.28;;;15.04;67.28
28267;BME280;15525;45.568;5.448;2022-11-15T06:46:00;97576.97;;;15.02;67.60
28267;BME280;15525;45.568;5.448;2022-11-15T06:48:26;97567.94;;;14.98;67.81
28267;BME280;15525;45.568;5.448;2022-11-15T06:50:53;97566.53;;;15.01;68.02
28267;BME280;15525;45.568;5.448;2022-11-15T06:53:19;97568.22;;;15.19;67.26
28267;BME280;15525;45.568;5.448;2022-11-15T06:55:44;97568.25;;;15.27;67.00
28267;BME280;15525;45.568;5.448;2022-11-15T06:58:09;97559.66;;;15.25;66.72
28267;BME280;15525;45.568;5.448;2022-11-15T07:00:35;97567.94;;;15.29;66.92
28267;BME280;15525;45.568;5.448;2022-11-15T07:03:01;97570.00;;;15.32;67.04
28267;BME280;15525;45.568;5.448;2022-11-15T07:05:27;97566.88;;;15.38;67.02
28267;BME280;15525;45.568;5.448;2022-11-15T07:07:53;97570.13;;;15.27;66.65
28267;BME280;15525;45.568;5.448;2022-11-15T07:10:19;97575.09;;;15.33;67.12
28267;BME280;15525;45.568;5.448;2022-11-15T07:12:48;97565.97;;;15.43;66.57
28267;BME280;15525;45.568;5.448;2022-11-15T07:15:18;97571.38;;;15.51;66.03
28267;BME280;15525;45.568;5.448;2022-11-15T07:17:44;97557.59;;;15.53;66.07
28267;BME280;15525;45.568;5.448;2022-11-15T07:20:11;97567.47;;;15.66;65.91
28267;BME280;15525;45.568;5.448;2022-11-15T07:22:36;97558.25;;;15.67;65.87
28267;BME280;15525;45.568;5.448;2022-11-15T07:25:02;97564.78;;;15.74;65.65
28267;BME280;15525;45.568;5.448;2022-11-15T07:27:27;97556.22;;;15.72;65.47
28267;BME280;15525;45.568;5.448;2022-11-15T07:29:53;97553.00;;;15.53;66.18
28267;BME280;15525;45.568;5.448;2022-11-15T07:32:18;97549.63;;;15.48;66.56
28267;BME280;15525;45.568;5.448;2022-11-15T07:34:43;97563.78;;;15.53;66.16
28267;BME280;15525;45.568;5.448;2022-11-15T07:37:11;97543.47;;;15.56;66.25
28267;BME280;15525;45.568;5.448;2022-11-15T07:39:37;97553.53;;;15.72;66.14
28267;BME280;15525;45.568;5.448;2022-11-15T07:42:02;97552.41;;;15.73;65.89
28267;BME280;15525;45.568;5.448;2022-11-15T07:44:46;97548.22;;;15.59;65.79
28267;BME280;15525;45.568;5.448;2022-11-15T07:47:12;97555.25;;;15.77;65.85
28267;BME280;15525;45.568;5.448;2022-11-15T07:49:37;97563.06;;;15.87;65.74
28267;BME280;15525;45.568;5.448;2022-11-15T07:52:03;97566.25;;;15.80;65.88
28267;BME280;15525;45.568;5.448;2022-11-15T07:54:28;97563.66;;;15.67;65.48
28267;BME280;15525;45.568;5.448;2022-11-15T07:56:54;97560.84;;;15.89;66.06
28267;BME280;15525;45.568;5.448;2022-11-15T07:59:19;97563.19;;;15.73;66.28
28267;BME280;15525;45.568;5.448;2022-11-15T08:01:44;97561.47;;;15.69;66.64
28267;BME280;15525;45.568;5.448;2022-11-15T08:04:10;97573.22;;;15.81;65.82
28267;BME280;15525;45.568;5.448;2022-11-15T08:06:37;97577.44;;;15.65;66.23
28267;BME280;15525;45.568;5.448;2022-11-15T08:09:03;97566.66;;;15.65;66.26
28267;BME280;15525;45.568;5.448;2022-11-15T08:11:28;97569.09;;;15.36;67.10
28267;BME280;15525;45.568;5.448;2022-11-15T08:13:54;97563.50;;;15.72;66.50
28267;BME280;15525;45.568;5.448;2022-11-15T08:16:19;97562.91;;;15.83;66.35
28267;BME280;15525;45.568;5.448;2022-11-15T08:18:45;97553.88;;;16.05;65.98
28267;BME280;15525;45.568;5.448;2022-11-15T08:21:14;97554.53;;;16.10;65.92
28267;BME280;15525;45.568;5.448;2022-11-15T08:23:42;97540.84;;;15.98;65.17
28267;BME280;15525;45.568;5.448;2022-11-15T08:26:08;97552.19;;;16.17;65.22
28267;BME280;15525;45.568;5.448;2022-11-15T08:28:34;97548.19;;;16.06;65.97
28267;BME280;15525;45.568;5.448;2022-11-15T08:30:59;97537.25;;;16.20;65.65
28267;BME280;15525;45.568;5.448;2022-11-15T08:33:25;97553.09;;;16.21;65.85
28267;BME280;15525;45.568;5.448;2022-11-15T08:35:50;97512.59;;;15.96;65.88
28267;BME280;15525;45.568;5.448;2022-11-15T08:38:16;97541.19;;;16.14;66.00
28267;BME280;15525;45.568;5.448;2022-11-15T08:40:41;97544.84;;;16.18;65.44
28267;BME280;15525;45.568;5.448;2022-11-15T08:43:07;97542.97;;;16.18;66.34
28267;BME280;15525;45.568;5.448;2022-11-15T08:45:34;97536.28;;;16.16;65.65
28267;BME280;15525;45.568;5.448;2022-11-15T08:48:01;97549.28;;;16.39;65.87
28267;BME280;15525;45.568;5.448;2022-11-15T08:50:27;97543.09;;;16.22;65.43
28267;BME280;15525;45.568;5.448;2022-11-15T08:52:53;97541.06;;;16.27;65.13
28267;BME280;15525;45.568;5.448;2022-11-15T08:55:18;97536.63;;;16.40;65.04
28267;BME280;15525;45.568;5.448;2022-11-15T08:57:44;97542.00;;;16.48;65.04
28267;BME280;15525;45.568;5.448;2022-11-15T09:00:09;97532.94;;;16.36;64.95
28267;BME280;15525;45.568;5.448;2022-11-15T09:02:38;97519.44;;;16.10;65.75
28267;BME280;15525;45.568;5.448;2022-11-15T09:05:04;97534.84;;;16.27;65.58
28267;BME280;15525;45.568;5.448;2022-11-15T09:07:29;97529.59;;;16.30;65.95
28267;BME280;15525;45.568;5.448;2022-11-15T09:09:55;97534.69;;;16.57;65.02
28267;BME280;15525;45.568;5.448;2022-11-15T09:12:21;97530.44;;;16.65;65.21
28267;BME280;15525;45.568;5.448;2022-11-15T09:14:46;97508.81;;;16.48;64.64
28267;BME280;15525;45.568;5.448;2022-11-15T09:17:11;97508.81;;;16.48;64.93
28267;BME280;15525;45.568;5.448;2022-11-15T09:19:37;97513.09;;;16.57;64.87
28267;BME280;15525;45.568;5.448;2022-11-15T09:22:05;97519.88;;;16.80;64.95
28267;BME280;15525;45.568;5.448;2022-11-15T09:24:31;97518.13;;;16.84;64.46
28267;BME280;15525;45.568;5.448;2022-11-15T09:26:56;97499.56;;;16.57;64.86
28267;BME280;15525;45.568;5.448;2022-11-15T09:29:21;97499.09;;;16.30;65.44
28267;BME280;15525;45.568;5.448;2022-11-15T09:31:47;97519.13;;;16.46;65.38
28267;BME280;15525;45.568;5.448;2022-11-15T09:34:12;97510.06;;;16.59;64.20
28267;BME280;15525;45.568;5.448;2022-11-15T09:36:37;97529.28;;;16.57;64.83
28267;BME280;15525;45.568;5.448;2022-11-15T09:39:03;97518.19;;;16.67;64.21
28267;BME280;15525;45.568;5.448;2022-11-15T09:50:32;97516.06;;;16.90;64.75
28267;BME280;15525;45.568;5.448;2022-11-15T09:52:59;97511.56;;;17.02;64.41
28267;BME280;15525;45.568;5.448;2022-11-15T09:55:36;97484.81;;;17.01;63.55
28267;BME280;15525;45.568;5.448;2022-11-15T10:00:58;97507.31;;;17.30;63.72
28267;BME280;15525;45.568;5.448;2022-11-15T10:03:27;97498.88;;;17.40;63.02
28267;BME280;15525;45.568;5.448;2022-11-15T10:06:05;97496.03;;;17.28;63.55
28267;BME280;15525;45.568;5.448;2022-11-15T10:09:17;97497.69;;;17.50;62.78
28267;BME280;15525;45.568;5.448;2022-11-15T10:11:44;97493.47;;;17.40;63.05
28267;BME280;15525;45.568;5.448;2022-11-15T10:14:11;97498.75;;;17.57;63.31
28267;BME280;15525;45.568;5.448;2022-11-15T10:16:50;97481.97;;;17.72;63.07
28267;BME280;15525;45.568;5.448;2022-11-15T10:22:35;97480.66;;;17.49;62.64
28267;BME280;15525;45.568;5.448;2022-11-15T10:25:19;97467.22;;;17.61;62.67
28267;BME280;15525;45.568;5.448;2022-11-15T10:27:51;97460.13;;;17.77;62.63
28267;BME280;15525;45.568;5.448;2022-11-15T10:30:18;97454.97;;;17.84;62.78
28267;BME280;15525;45.568;5.448;2022-11-15T10:32:45;97435.47;;;17.50;63.13
28267;BME280;15525;45.568;5.448;2022-11-15T10:35:25;97449.41;;;17.60;63.24
28267;BME280;15525;45.568;5.448;2022-11-15T10:37:51;97440.28;;;17.36;63.84
28267;BME280;15525;45.568;5.448;2022-11-15T10:40:23;97450.72;;;17.54;63.35
28267;BME280;15525;45.568;5.448;2022-11-15T10:43:04;97453.00;;;17.44;62.89
28267;BME280;15525;45.568;5.448;2022-11-15T10:45:32;97452.56;;;17.62;63.00
28267;BME280;15525;45.568;5.448;2022-11-15T10:50:46;97437.72;;;17.68;64.19
28267;BME280;15525;45.568;5.448;2022-11-15T10:55:50;97430.25;;;17.65;63.85
28267;BME280;15525;45.568;5.448;2022-11-15T10:58:55;97423.66;;;17.54;63.30
28267;BME280;15525;45.568;5.448;2022-11-15T11:01:28;97413.50;;;17.72;63.20
28267;BME280;15525;45.568;5.448;2022-11-15T11:04:05;97414.66;;;17.62;63.53
28267;BME280;15525;45.568;5.448;2022-11-15T11:06:48;97409.53;;;17.49;63.35
28267;BME280;15525;45.568;5.448;2022-11-15T11:09:38;97403.75;;;17.21;64.04
28267;BME280;15525;45.568;5.448;2022-11-15T11:12:10;97394.03;;;17.29;63.54
28267;BME280;15525;45.568;5.448;2022-11-15T11:14:38;97377.25;;;17.44;63.88
28267;BME280;15525;45.568;5.448;2022-11-15T11:25:08;97369.91;;;17.65;63.61
28267;BME280;15525;45.568;5.448;2022-11-15T11:27:51;97370.09;;;17.39;64.06
28267;BME280;15525;45.568;5.448;2022-11-15T11:30:47;97368.09;;;17.57;63.96
28267;BME280;15525;45.568;5.448;2022-11-15T11:33:16;97371.50;;;17.66;63.49
28267;BME280;15525;45.568;5.448;2022-11-15T11:35:59;97365.81;;;17.59;63.46
28267;BME280;15525;45.568;5.448;2022-11-15T11:41:59;97355.59;;;17.85;63.24
28267;BME280;15525;45.568;5.448;2022-11-15T11:47:31;97344.94;;;18.00;63.44
28267;BME280;15525;45.568;5.448;2022-11-15T11:50:41;97348.56;;;18.04;63.54
28267;BME280;15525;45.568;5.448;2022-11-15T11:53:05;97358.31;;;17.97;62.36
28267;BME280;15525;45.568;5.448;2022-11-15T11:55:45;97350.53;;;18.28;62.80
28267;BME280;15525;45.568;5.448;2022-11-15T11:58:25;97348.72;;;18.32;63.34
28267;BME280;15525;45.568;5.448;2022-11-15T12:00:55;97351.53;;;18.23;63.13
28267;BME280;15525;45.568;5.448;2022-11-15T12:03:39;97345.44;;;18.26;62.49
28267;BME280;15525;45.568;5.448;2022-11-15T12:06:27;97336.53;;;18.26;61.57
28267;BME280;15525;45.568;5.448;2022-11-15T12:09:21;97337.31;;;18.26;62.20
28267;BME280;15525;45.568;5.448;2022-11-15T12:12:02;97326.75;;;18.33;61.82
28267;BME280;15525;45.568;5.448;2022-11-15T12:14:40;97307.97;;;18.28;62.75
28267;BME280;15525;45.568;5.448;2022-11-15T12:17:11;97317.03;;;18.44;62.36
28267;BME280;15525;45.568;5.448;2022-11-15T12:19:37;97322.00;;;18.54;62.22
28267;BME280;15525;45.568;5.448;2022-11-15T12:22:18;97316.16;;;18.52;62.60
28267;BME280;15525;45.568;5.448;2022-11-15T12:24:55;97323.63;;;18.67;61.60
28267;BME280;15525;45.568;5.448;2022-11-15T12:30:02;97311.06;;;18.87;61.83
28267;BME280;15525;45.568;5.448;2022-11-15T12:32:34;97304.41;;;18.48;62.53
28267;BME280;15525;45.568;5.448;2022-11-15T12:35:02;97304.41;;;18.48;62.32
28267;BME280;15525;45.568;5.448;2022-11-15T12:40:27;97282.72;;;18.36;62.57
28267;BME280;15525;45.568;5.448;2022-11-15T12:43:43;97281.16;;;18.47;62.02
28267;BME280;15525;45.568;5.448;2022-11-15T12:51:11;97259.78;;;18.46;63.56
28267;BME280;15525;45.568;5.448;2022-11-15T12:53:36;97245.78;;;18.56;62.91
28267;BME280;15525;45.568;5.448;2022-11-15T13:01:07;97232.44;;;18.75;62.68
28267;BME280;15525;45.568;5.448;2022-11-15T13:03:33;97223.28;;;18.79;63.07
28267;BME280;15525;45.568;5.448;2022-11-15T13:06:01;97226.09;;;18.83;63.11
28267;BME280;15525;45.568;5.448;2022-11-15T13:08:42;97200.94;;;18.70;62.91
28267;BME280;15525;45.568;5.448;2022-11-15T13:11:47;97199.94;;;18.63;63.19
28267;BME280;15525;45.568;5.448;2022-11-15T13:19:46;97190.78;;;18.19;64.28
28267;BME280;15525;45.568;5.448;2022-11-15T13:22:12;97188.28;;;18.26;64.57
28267;BME280;15525;45.568;5.448;2022-11-15T13:24:56;97184.47;;;18.27;64.89
28267;BME280;15525;45.568;5.448;2022-11-15T13:27:22;97170.22;;;18.30;64.87
28267;BME280;15525;45.568;5.448;2022-11-15T13:29:48;97183.09;;;18.21;65.16
28267;BME280;15525;45.568;5.448;2022-11-15T13:32:15;97163.91;;;18.26;65.65
28267;BME280;15525;45.568;5.448;2022-11-15T13:34:46;97158.03;;;18.24;65.86
28267;BME280;15525;45.568;5.448;2022-11-15T13:37:28;97145.41;;;18.28;65.83
28267;BME280;15525;45.568;5.448;2022-11-15T13:40:10;97134.34;;;18.21;65.78
28267;BME280;15525;45.568;5.448;2022-11-15T13:42:36;97149.47;;;18.34;65.52
28267;BME280;15525;45.568;5.448;2022-11-15T13:45:03;97130.75;;;18.05;65.36
28267;BME280;15525;45.568;5.448;2022-11-15T13:47:30;97146.06;;;18.13;65.03
28267;BME280;15525;45.568;5.448;2022-11-15T13:49:57;97124.19;;;17.94;64.96
28267;BME280;15525;45.568;5.448;2022-11-15T13:52:28;97112.59;;;17.94;64.99
28267;BME280;15525;45.568;5.448;2022-11-15T13:55:09;97129.16;;;17.92;65.62
28267;BME280;15525;45.568;5.448;2022-11-15T13:57:48;97107.28;;;17.97;65.09
28267;BME280;15525;45.568;5.448;2022-11-15T14:00:36;97105.56;;;18.05;64.51
28267;BME280;15525;45.568;5.448;2022-11-15T14:03:27;97104.78;;;18.16;64.54
28267;BME280;15525;45.568;5.448;2022-11-15T14:06:09;97108.28;;;18.17;64.57
28267;BME280;15525;45.568;5.448;2022-11-15T14:08:40;97109.63;;;18.23;64.31
28267;BME280;15525;45.568;5.448;2022-11-15T14:11:19;97113.78;;;18.32;64.54
28267;BME280;15525;45.568;5.448;2022-11-15T14:16:45;97104.66;;;18.13;64.39
28267;BME280;15525;45.568;5.448;2022-11-15T14:19:34;97106.34;;;18.29;63.73
28267;BME280;15525;45.568;5.448;2022-11-15T14:22:24;97098.72;;;17.95;63.58
28267;BME280;15525;45.568;5.448;2022-11-15T14:25:18;97087.94;;;18.23;63.67
28267;BME280;15525;45.568;5.448;2022-11-15T14:28:15;97094.59;;;18.25;63.38
28267;BME280;15525;45.568;5.448;2022-11-15T14:30:42;97078.00;;;18.27;63.08
28267;BME280;15525;45.568;5.448;2022-11-15T14:33:28;97088.97;;;18.18;63.29
28267;BME280;15525;45.568;5.448;2022-11-15T14:35:55;97072.94;;;18.13;63.66
28267;BME280;15525;45.568;5.448;2022-11-15T14:38:25;97074.06;;;18.24;63.32